Time;durP1;ratioP1;P1;durP2;ratioP2;P2;SDS_P1;SDS_P2;PMS_P1;PMS_P2;Temp;Humidity;BMP_temperature;BMP_pressure;BME280_temperature;BME280_humidity;BME280_pressure;Samples;Min_cycle;Max_cycle;Signal;HPM_P1;HPM_P2
2022/05/22 00:02:18;;;;;;;2.72;1.20;;;;;;;18.93;56.46;96804.25;10455493;28;20036;-22
2022/05/22 00:07:18;;;;;;;1.83;1.10;;;;;;;18.95;56.64;96805.09;10455309;28;20495;-22
2022/05/22 00:12:19;;;;;;;2.65;0.90;;;;;;;18.90;56.59;96811.84;10455558;28;20043;-22
2022/05/22 00:17:19;;;;;;;3.03;0.80;;;;;;;18.88;56.67;96813.53;10455436;28;20057;-24
2022/05/22 00:22:20;;;;;;;2.92;1.10;;;;;;;18.88;56.56;96811.00;10494612;28;20044;-24
2022/05/22 00:27:20;;;;;;;2.00;1.00;;;;;;;18.97;56.18;96816.06;10464947;28;20462;-22
2022/05/22 00:32:21;;;;;;;1.10;1.00;;;;;;;19.00;56.02;96805.94;10481417;28;20021;-22
2022/05/22 00:37:22;;;;;;;1.30;0.70;;;;;;;18.89;56.24;96807.63;10452650;28;20040;-23
2022/05/22 00:42:24;;;;;;;1.27;0.82;;;;;;;18.85;56.07;96813.56;10453677;28;20041;-24
2022/05/22 00:47:25;;;;;;;1.15;0.80;;;;;;;18.82;56.00;96814.38;10458511;28;20024;-24
2022/05/22 00:52:29;;;;;;;2.60;0.90;;;;;;;18.85;56.09;96803.41;10495297;28;20055;-25
2022/05/22 00:57:43;;;;;;;1.00;0.90;;;;;;;18.83;56.09;96811.00;10462349;28;20075;-22
2022/05/22 01:08:05;;;;;;;1.27;0.77;;;;;;;18.72;56.06;96778.88;10451950;28;20036;-22
2022/05/22 01:13:07;;;;;;;1.60;0.90;;;;;;;18.70;56.27;96773.81;10452575;28;20036;-23
2022/05/22 01:18:07;;;;;;;0.90;0.77;;;;;;;18.75;56.14;96783.97;10451161;28;20056;-23
2022/05/22 01:23:08;;;;;;;0.75;0.68;;;;;;;18.85;55.76;96772.97;10491680;28;20056;-22
2022/05/22 01:28:11;;;;;;;0.85;0.70;;;;;;;18.99;55.39;96767.03;10454335;28;20036;-23
2022/05/22 01:33:11;;;;;;;2.05;0.82;;;;;;;18.90;55.65;96777.19;10451109;28;20437;-23
2022/05/22 01:38:13;;;;;;;0.77;0.70;;;;;;;18.86;55.41;96779.72;10450234;28;20029;-24
2022/05/22 01:43:18;;;;;;;2.00;0.70;;;;;;;18.73;55.64;96762.81;10433434;28;20060;-22
2022/05/22 01:48:22;;;;;;;1.55;0.47;;;;;;;18.73;55.52;96762.81;10466821;28;20691;-21
2022/05/22 01:53:22;;;;;;;2.53;0.70;;;;;;;18.64;55.67;96747.59;10491079;28;20051;-22
2022/05/22 01:58:24;;;;;;;1.95;0.75;;;;;;;18.70;55.62;96747.59;10451051;28;20037;-24
2022/05/22 02:03:26;;;;;;;1.48;0.80;;;;;;;18.69;55.52;96743.38;10449280;28;20044;-24
2022/05/22 02:08:26;;;;;;;1.83;0.80;;;;;;;18.69;55.49;96748.44;10449409;28;20032;-22
2022/05/22 02:13:35;;;;;;;3.05;0.77;;;;;;;18.69;55.49;96736.63;10487528;28;20040;-23
2022/05/22 02:18:36;;;;;;;1.60;1.05;;;;;;;18.70;55.81;96728.19;10478039;28;20056;-22
2022/05/22 02:23:37;;;;;;;1.08;0.90;;;;;;;18.71;55.03;96718.84;10449136;28;20086;-23
2022/05/22 02:28:39;;;;;;;1.70;0.73;;;;;;;18.80;54.95;96734.06;10452559;28;20123;-24
2022/05/22 02:33:40;;;;;;;2.05;0.85;;;;;;;18.74;55.01;96717.16;10481483;28;20399;-24
2022/05/22 02:38:44;;;;;;;1.17;0.70;;;;;;;18.59;55.30;96711.28;10448452;28;20060;-22
2022/05/22 02:43:48;;;;;;;3.20;0.68;;;;;;;18.66;55.24;96725.66;10447666;28;20040;-22
2022/05/22 02:48:48;;;;;;;2.73;0.80;;;;;;;18.65;55.23;96718.84;10449390;28;20037;-23
2022/05/22 02:53:50;;;;;;;4.22;0.95;;;;;;;18.62;55.08;96711.25;10451208;28;20437;-23
2022/05/22 02:59:03;;;;;;;1.50;0.70;;;;;;;18.61;55.33;96712.09;10448602;28;20051;-23
2022/05/22 03:04:12;;;;;;;1.98;0.95;;;;;;;18.60;55.31;96710.41;10447586;28;20037;-23
2022/05/22 03:09:15;;;;;;;2.00;0.80;;;;;;;18.59;55.19;96708.75;10447774;28;20282;-23
2022/05/22 03:14:22;;;;;;;2.78;0.90;;;;;;;18.55;55.06;96705.34;10447684;28;20275;-22
2022/05/22 03:19:24;;;;;;;2.30;1.05;;;;;;;18.63;54.91;96710.41;10447106;28;20036;-23
2022/05/22 03:24:24;;;;;;;1.23;0.93;;;;;;;18.68;54.59;96706.19;10446884;28;20051;-24
2022/05/22 03:29:26;;;;;;;1.58;0.80;;;;;;;18.62;54.59;96704.50;10458172;28;20036;-23
2022/05/22 03:34:29;;;;;;;1.58;0.80;;;;;;;18.63;54.94;96692.66;10465153;28;20556;-23
2022/05/22 03:39:31;;;;;;;1.30;0.63;;;;;;;18.63;54.94;96688.44;10448846;28;20529;-24
2022/05/22 03:44:32;;;;;;;2.42;1.17;;;;;;;18.58;54.98;96696.91;10447157;28;20052;-24
2022/05/22 03:49:33;;;;;;;1.25;0.70;;;;;;;18.59;55.17;96683.38;10447488;28;20091;-24
2022/05/22 03:54:33;;;;;;;1.95;0.75;;;;;;;18.56;54.94;96693.50;10455099;28;20514;-22
2022/05/22 03:59:41;;;;;;;3.70;1.00;;;;;;;18.51;55.12;96680.84;10454880;28;20094;-25
2022/05/22 04:04:43;;;;;;;1.48;0.80;;;;;;;18.56;54.83;96678.28;10453946;28;20061;-24
2022/05/22 04:09:56;;;;;;;0.80;0.60;;;;;;;18.52;54.86;96674.09;10453948;28;20514;-21
2022/05/22 04:15:09;;;;;;;1.58;0.80;;;;;;;18.60;54.73;96669.84;10455085;28;20168;-23
2022/05/22 04:20:10;;;;;;;3.00;0.80;;;;;;;18.64;54.47;96671.53;10453620;28;20131;-22
2022/05/22 04:25:15;;;;;;;0.88;0.70;;;;;;;18.57;54.58;96674.94;10454815;28;20037;-22
2022/05/22 04:30:18;;;;;;;1.33;0.93;;;;;;;18.55;54.70;96662.25;10470518;28;20040;-23
2022/05/22 04:35:22;;;;;;;1.08;0.80;;;;;;;18.56;54.71;96663.09;10492286;28;20035;-23
2022/05/22 04:40:23;;;;;;;4.05;1.02;;;;;;;18.53;55.31;96653.81;10478777;28;20376;-23
2022/05/22 04:45:24;;;;;;;0.77;0.60;;;;;;;18.54;54.85;96644.50;10452207;28;20025;-23
2022/05/22 04:50:51;;;;;;;;;;;;;;;18.54;54.92;96644.50;10459080;28;20299;-23
2022/05/22 04:56:15;;;;;;;2.63;0.70;;;;;;;18.51;55.04;96634.38;10476983;28;19912;-23
2022/05/22 05:01:20;;;;;;;1.58;0.80;;;;;;;18.43;55.12;96626.75;10493137;28;20036;-23
2022/05/22 05:06:34;;;;;;;2.58;1.08;;;;;;;18.49;55.17;96636.06;10459482;28;20503;-23
2022/05/22 05:11:37;;;;;;;1.95;0.90;;;;;;;18.55;55.02;96624.22;10475144;28;20028;-23
2022/05/22 05:16:40;;;;;;;5.88;1.23;;;;;;;18.63;54.87;96608.97;10492550;28;20033;-23
2022/05/22 05:21:45;;;;;;;1.65;0.75;;;;;;;18.71;54.67;96622.50;10462184;28;20068;-23
2022/05/22 05:26:50;;;;;;;3.90;1.77;;;;;;;18.56;55.28;96628.44;10451593;28;20086;-23
2022/05/22 05:31:52;;;;;;;1.67;1.08;;;;;;;18.63;55.10;96635.19;10483872;28;20039;-22
2022/05/22 05:36:54;;;;;;;2.08;0.77;;;;;;;18.61;55.51;96630.97;10493405;28;20028;-21
2022/05/22 05:42:15;;;;;;;3.33;1.10;;;;;;;18.60;55.55;96625.03;10464892;28;20103;-23
2022/05/22 05:47:16;;;;;;;2.45;0.93;;;;;;;18.66;55.53;96624.22;10452664;28;20075;-22
2022/05/22 05:52:41;;;;;;;1.30;0.70;;;;;;;18.60;55.79;96616.59;10452249;28;20055;-21
2022/05/22 05:58:03;;;;;;;1.98;0.60;;;;;;;18.58;56.33;96621.66;10447204;28;20048;-22
2022/05/22 06:03:04;;;;;;;2.10;1.00;;;;;;;18.57;56.54;96616.63;10452050;28;20037;-22
2022/05/22 06:08:06;;;;;;;1.35;0.80;;;;;;;18.64;56.34;96610.66;10452635;28;20071;-22
2022/05/22 06:13:08;;;;;;;3.10;0.90;;;;;;;18.73;56.02;96615.72;10451029;28;20119;-22
2022/05/22 06:18:08;;;;;;;0.70;0.60;;;;;;;18.68;56.02;96612.38;10451485;28;20029;-21
2022/05/22 06:23:09;;;;;;;2.63;0.80;;;;;;;18.66;56.38;96616.59;10451894;28;20033;-22
2022/05/22 06:28:28;;;;;;;2.53;0.93;;;;;;;18.63;56.61;96608.97;10455383;28;20095;-23
2022/05/22 06:33:44;;;;;;;1.85;1.15;;;;;;;18.59;57.27;96620.00;10486945;28;20037;-22
2022/05/22 06:44:40;;;;;;;1.33;0.95;;;;;;;18.62;57.18;96615.75;10452700;28;20119;-21
2022/05/22 06:50:05;;;;;;;1.48;1.02;;;;;;;18.61;57.27;96625.91;10479062;28;20270;-22
2022/05/22 06:55:28;;;;;;;2.15;0.90;;;;;;;18.56;57.42;96638.59;10490791;28;20033;-21
2022/05/22 07:00:52;;;;;;;1.27;0.95;;;;;;;18.58;57.82;96626.75;10481793;28;20056;-21
2022/05/22 07:06:06;;;;;;;2.78;0.93;;;;;;;18.69;57.56;96626.72;10458809;28;20037;-21
2022/05/22 07:11:38;;;;;;;2.25;1.00;;;;;;;18.84;57.20;96614.00;10429273;28;20507;-21
2022/05/22 07:17:02;;;;;;;1.75;0.90;;;;;;;18.71;57.83;96598.00;10449885;28;20442;-21
2022/05/22 07:22:09;;;;;;;1.13;0.80;;;;;;;18.78;57.66;96591.19;10484880;28;20395;-21
2022/05/22 07:27:18;;;;;;;2.35;0.90;;;;;;;18.73;58.12;96585.28;10460052;28;20036;-22
2022/05/22 07:32:31;;;;;;;2.63;0.98;;;;;;;18.78;58.11;96584.44;10491549;28;20115;-23
2022/05/22 07:37:54;;;;;;;2.33;1.05;;;;;;;18.68;58.68;96589.53;10456435;28;20048;-23
2022/05/22 07:43:27;;;;;;;4.53;1.10;;;;;;;18.78;58.60;96579.38;10441705;28;20414;-22
2022/05/22 07:48:49;;;;;;;1.08;0.90;;;;;;;18.72;58.60;96583.59;10454669;28;20041;-22
2022/05/22 07:54:18;;;;;;;1.30;0.90;;;;;;;18.77;58.50;96586.97;10457291;28;20037;-21
2022/05/22 07:59:38;;;;;;;0.90;0.80;;;;;;;18.90;58.05;96588.59;10455847;28;20044;-21
2022/05/22 08:05:04;;;;;;;5.78;1.25;;;;;;;19.00;57.70;96590.28;10486043;28;20052;-21
2022/05/22 08:10:15;;;;;;;1.52;0.80;;;;;;;19.05;57.30;96579.25;10481642;28;20476;-21
2022/05/22 08:15:22;;;;;;;1.23;0.93;;;;;;;18.96;57.71;96588.59;10453361;28;20450;-20
2022/05/22 08:20:29;;;;;;;1.77;0.80;;;;;;;18.89;58.20;96576.78;10471882;28;20051;-21
2022/05/22 08:25:32;;;;;;;1.60;0.95;;;;;;;18.98;58.02;96569.13;10478161;28;20033;-21
2022/05/22 08:30:33;;;;;;;1.90;0.95;;;;;;;18.99;57.76;96553.91;10473241;28;20040;-21
2022/05/22 08:35:37;;;;;;;1.15;0.73;;;;;;;18.96;57.89;96558.16;10475901;28;20047;-22
2022/05/22 08:40:57;;;;;;;1.52;0.80;;;;;;;18.89;57.83;96556.47;10453348;28;20403;-23
2022/05/22 08:46:13;;;;;;;3.95;1.17;;;;;;;18.87;58.25;96553.13;10453404;28;20040;-23
2022/05/22 08:51:24;;;;;;;1.20;0.80;;;;;;;18.78;58.16;96548.09;10453864;28;20103;-22
2022/05/22 09:02:26;;;;;;;3.70;0.80;;;;;;;18.87;58.06;96522.66;10453848;28;20155;-22
2022/05/22 09:07:34;;;;;;;1.23;0.90;;;;;;;18.87;58.40;96505.78;10453152;28;20090;-21
2022/05/22 09:12:53;;;;;;;2.35;0.77;;;;;;;18.91;58.25;96504.06;10453294;28;20033;-21
2022/05/22 09:18:09;;;;;;;1.30;0.88;;;;;;;18.87;58.42;96531.13;10452810;28;20116;-21
2022/05/22 09:23:43;;;;;;;2.20;1.20;;;;;;;18.85;58.67;96529.44;10491853;28;20044;-21
2022/05/22 09:28:44;;;;;;;2.28;1.20;;;;;;;18.94;58.62;96524.34;10456660;28;20028;-20
2022/05/22 09:34:19;;;;;;;3.10;1.15;;;;;;;18.86;59.09;96515.91;10471978;28;20032;-22
2022/05/22 09:39:44;;;;;;;5.00;0.88;;;;;;;18.92;58.91;96519.25;10451761;28;20515;-21
2022/05/22 09:45:05;;;;;;;2.00;0.85;;;;;;;18.96;58.63;96498.13;10451854;28;20079;-22
2022/05/22 09:50:22;;;;;;;2.35;1.00;;;;;;;18.98;59.03;96501.47;10464719;28;20110;-22
2022/05/22 09:55:27;;;;;;;4.78;0.98;;;;;;;18.93;59.13;96489.69;10491056;28;20051;-22
2022/05/22 10:00:47;;;;;;;0.88;0.73;;;;;;;19.25;58.28;96495.44;10491159;28;20434;-22
2022/05/22 10:06:09;;;;;;;1.77;0.85;;;;;;;19.11;59.24;96492.09;10461596;28;20118;-22
2022/05/22 10:11:31;;;;;;;3.47;1.30;;;;;;;19.07;59.00;96496.34;10450779;28;20044;-21
2022/05/22 10:16:46;;;;;;;0.80;0.80;;;;;;;19.06;58.97;96488.72;10450083;28;20040;-21
2022/05/22 10:22:02;;;;;;;2.72;1.20;;;;;;;19.11;59.32;96487.03;10457915;28;20060;-20
2022/05/22 10:27:14;;;;;;;1.90;0.93;;;;;;;19.12;59.29;96473.47;10462961;28;20037;-22
2022/05/22 10:32:30;;;;;;;1.13;0.80;;;;;;;19.18;59.04;96460.75;10483902;28;20036;-22
2022/05/22 10:37:42;;;;;;;1.33;0.90;;;;;;;19.27;58.80;96448.88;10450062;28;20079;-21
2022/05/22 10:42:48;;;;;;;2.25;0.95;;;;;;;19.61;58.10;96444.38;10449521;28;20037;-21
2022/05/22 10:47:51;;;;;;;1.23;0.80;;;;;;;19.47;57.69;96425.88;10448389;28;20041;-21
2022/05/22 10:52:54;;;;;;;1.70;1.00;;;;;;;19.64;58.10;96408.78;10449126;28;20033;-21
2022/05/22 10:58:23;;;;;;;1.65;1.00;;;;;;;19.85;57.58;96406.03;10452392;28;20044;-20
2022/05/22 11:03:26;;;;;;;1.13;0.70;;;;;;;19.66;57.35;96390.13;10455029;28;20053;-21
2022/05/22 11:08:35;;;;;;;1.08;0.82;;;;;;;19.37;58.06;96383.66;10457683;28;20200;-20
2022/05/22 11:13:35;;;;;;;1.17;0.93;;;;;;;19.28;58.26;96383.72;10456871;28;20035;-21
2022/05/22 11:18:35;;;;;;;1.83;0.70;;;;;;;19.25;58.17;96384.59;10457429;28;20040;-21
2022/05/22 11:24:00;;;;;;;1.60;0.70;;;;;;;19.30;57.74;96367.63;10457344;28;20411;-21
2022/05/22 11:29:30;;;;;;;1.55;0.50;;;;;;;19.22;58.15;96363.47;10463766;28;20044;-21
2022/05/22 11:34:56;;;;;;;1.02;0.93;;;;;;;19.31;58.38;96368.47;10497305;28;20047;-21
2022/05/22 11:40:22;;;;;;;2.67;0.80;;;;;;;19.34;57.59;96378.59;10486799;28;20059;-21
2022/05/22 11:45:48;;;;;;;1.13;0.82;;;;;;;19.32;57.73;96375.22;10455652;28;20043;-23
2022/05/22 11:51:22;;;;;;;1.35;0.80;;;;;;;19.29;58.02;96370.19;10456262;28;20040;-23
2022/05/22 11:56:48;;;;;;;2.08;1.25;;;;;;;19.51;57.65;96366.59;10458999;28;20107;-21
2022/05/22 12:02:01;;;;;;;2.75;0.80;;;;;;;19.27;57.98;96356.66;10455659;28;20454;-23
2022/05/22 12:07:26;;;;;;;1.60;0.98;;;;;;;19.31;57.74;96353.22;10455636;28;20033;-22
2022/05/22 12:12:39;;;;;;;1.05;0.75;;;;;;;19.29;57.73;96340.56;10485469;28;20033;-22
2022/05/22 12:17:46;;;;;;;0.70;0.70;;;;;;;19.28;57.75;96322.81;10492345;28;20060;-22
2022/05/22 12:23:08;;;;;;;1.13;0.82;;;;;;;19.25;57.86;96311.00;10454813;28;20040;-22
2022/05/22 12:28:36;;;;;;;1.30;0.88;;;;;;;19.29;57.77;96304.19;10455188;28;20029;-22
2022/05/22 12:33:39;;;;;;;1.52;1.10;;;;;;;19.32;57.60;96294.00;10453373;28;20128;-21
2022/05/22 12:38:50;;;;;;;0.90;0.70;;;;;;;19.48;58.14;96305.66;10454805;28;20036;-22
2022/05/22 12:43:55;;;;;;;1.20;1.10;;;;;;;19.28;57.74;96298.28;10453097;28;20033;-21
2022/05/22 12:49:29;;;;;;;1.10;0.63;;;;;;;19.47;57.28;96299.78;10453684;28;20487;-21
2022/05/22 12:54:32;;;;;;;0.52;0.52;;;;;;;19.72;57.53;96290.16;10454281;28;20044;-21
2022/05/22 12:59:33;;;;;;;0.85;0.70;;;;;;;19.91;57.29;96273.88;10452901;28;20155;-21
2022/05/22 13:04:37;;;;;;;1.47;0.90;;;;;;;19.87;58.30;96278.16;10452419;28;20108;-22
2022/05/22 13:09:42;;;;;;;1.17;0.98;;;;;;;19.52;57.56;96277.69;10452854;28;20574;-21
2022/05/22 13:14:57;;;;;;;3.67;1.80;;;;;;;19.42;57.92;96270.22;10452657;28;20065;-21
2022/05/22 13:20:02;;;;;;;2.72;1.25;;;;;;;19.68;57.81;96258.06;10452323;28;20112;-21
2022/05/22 13:25:06;;;;;;;0.90;0.77;;;;;;;19.96;58.27;96245.00;10461640;28;20037;-21
2022/05/22 13:30:09;;;;;;;0.90;0.68;;;;;;;19.82;57.54;96248.56;10493024;28;20037;-21
2022/05/22 13:35:19;;;;;;;1.90;1.02;;;;;;;19.82;57.71;96246.00;10475923;28;20539;-20
2022/05/22 13:40:32;;;;;;;1.88;1.10;;;;;;;19.56;57.77;96243.81;10464620;28;20060;-21
2022/05/22 13:46:06;;;;;;;1.10;1.00;;;;;;;19.62;57.91;96232.72;10492571;28;20033;-19
2022/05/22 13:56:56;;;;;;;1.33;0.88;;;;;;;19.74;57.53;96217.31;10454050;28;20064;-23
2022/05/22 14:02:07;;;;;;;1.77;1.05;;;;;;;19.59;57.75;96231.06;10451345;28;20033;-24
2022/05/22 14:07:14;;;;;;;0.88;0.80;;;;;;;19.89;58.83;96227.28;10450431;28;20064;-24
2022/05/22 14:12:14;;;;;;;0.95;0.85;;;;;;;19.57;58.18;96230.25;10470509;28;20759;-23
2022/05/22 14:17:15;;;;;;;1.00;0.80;;;;;;;19.76;58.16;96224.06;10450375;28;20033;-23
2022/05/22 14:22:21;;;;;;;0.70;0.60;;;;;;;19.76;58.02;96218.16;10453736;28;20028;-24
2022/05/22 14:27:37;;;;;;;2.45;0.90;;;;;;;19.77;58.57;96218.13;10460321;28;20036;-24
2022/05/22 14:32:38;;;;;;;0.68;0.68;;;;;;;19.95;59.33;96217.91;10471946;28;20404;-23
2022/05/22 14:37:43;;;;;;;0.77;0.68;;;;;;;19.92;58.80;96219.66;10449892;28;20125;-23
2022/05/22 14:42:47;;;;;;;0.60;0.60;;;;;;;20.10;57.99;96214.34;10481694;28;20071;-20
2022/05/22 14:47:48;;;;;;;0.95;0.80;;;;;;;20.05;57.96;96218.63;10487438;28;20062;-21
2022/05/22 14:52:57;;;;;;;1.20;1.00;;;;;;;20.00;58.11;96226.28;10449855;28;20354;-20
2022/05/22 14:58:16;;;;;;;1.58;0.80;;;;;;;19.77;58.24;96218.13;10453173;28;20066;-21
2022/05/22 15:03:38;;;;;;;1.33;0.90;;;;;;;20.06;58.96;96211.00;10449103;28;20059;-20
2022/05/22 15:09:09;;;;;;;0.60;0.50;;;;;;;20.00;58.50;96200.06;10450132;28;20068;-21
2022/05/22 15:14:12;;;;;;;1.40;1.10;;;;;;;19.97;59.32;96195.00;10442685;28;20040;-21
2022/05/22 15:30:15;;;;;;;1.45;0.95;;;;;;;19.52;58.23;96170.22;10463950;28;20036;-21
2022/05/22 15:35:22;;;;;;;0.70;0.60;;;;;;;19.54;58.29;96168.50;10473611;28;20124;-20
2022/05/22 15:40:22;;;;;;;;;;;;;;;19.77;57.91;96176.66;10449119;28;20033;-22
2022/05/22 15:45:23;;;;;;;1.25;0.80;;;;;;;19.60;58.08;96191.28;10447974;28;19917;-22
2022/05/22 15:55:42;;;;;;;1.83;0.80;;;;;;;19.42;58.50;96201.69;10458847;28;20068;-21
2022/05/22 16:00:43;;;;;;;1.60;1.07;;;;;;;19.37;58.50;96194.13;10455719;28;20154;-21
2022/05/22 16:05:44;;;;;;;2.15;1.05;;;;;;;19.42;58.57;96199.13;10480440;28;20037;-21
2022/05/22 16:10:44;;;;;;;1.25;0.80;;;;;;;19.41;58.50;96197.47;10480140;28;20037;-22
2022/05/22 16:15:44;;;;;;;1.03;0.70;;;;;;;19.46;58.44;96190.63;10455115;28;20462;-22
2022/05/22 16:20:45;;;;;;;2.92;0.90;;;;;;;19.51;58.39;96193.94;10455242;28;20102;-21
2022/05/22 16:25:46;;;;;;;0.93;0.70;;;;;;;19.65;58.44;96176.81;10463117;28;20036;-20
2022/05/22 16:30:47;;;;;;;1.92;1.00;;;;;;;19.62;58.08;96149.78;10475717;28;20040;-21
2022/05/22 16:35:48;;;;;;;1.52;0.80;;;;;;;19.60;58.19;96133.72;10474002;28;20063;-21
2022/05/22 16:40:48;;;;;;;1.63;0.83;;;;;;;19.88;57.73;96098.59;10471535;28;20060;-23
2022/05/22 16:45:48;;;;;;;1.03;0.63;;;;;;;19.82;57.67;96080.91;10495280;28;20028;-22
2022/05/22 16:56:09;;;;;;;3.67;1.20;;;;;;;19.70;59.21;96053.16;10484725;28;20091;-23
2022/05/22 17:01:12;;;;;;;2.55;1.02;;;;;;;19.82;59.53;96037.72;10493396;28;20024;-22
2022/05/22 17:06:19;;;;;;;7.57;1.37;;;;;;;19.90;58.83;96033.34;10468207;28;20037;-22
2022/05/22 17:11:29;;;;;;;2.75;1.65;;;;;;;19.84;57.90;96010.63;10455409;28;20475;-22
2022/05/22 17:16:30;;;;;;;2.80;1.10;;;;;;;19.75;58.05;96010.75;10484885;28;20106;-22
2022/05/22 17:21:31;;;;;;;7.50;1.83;;;;;;;19.84;58.43;96000.44;10492482;28;20036;-23
2022/05/22 17:26:34;;;;;;;7.78;1.70;;;;;;;19.87;58.81;96000.41;10466236;28;20041;-23
2022/05/22 17:31:34;;;;;;;3.13;0.93;;;;;;;19.91;57.77;96009.66;10453596;28;20391;-23
2022/05/22 17:36:36;;;;;;;2.40;0.60;;;;;;;19.80;58.00;95999.66;10478620;28;20033;-22
2022/05/22 17:41:36;;;;;;;2.58;0.80;;;;;;;19.79;57.88;95986.97;10467101;28;20115;-22
2022/05/22 17:46:37;;;;;;;1.87;1.23;;;;;;;19.71;58.11;95978.66;10456025;28;20032;-21
2022/05/22 17:51:38;;;;;;;1.03;0.67;;;;;;;19.67;58.34;95966.88;10487954;28;20300;-23
2022/05/22 17:56:39;;;;;;;2.80;0.80;;;;;;;19.61;59.01;95970.31;10474549;28;20031;-23
2022/05/22 18:01:40;;;;;;;2.58;0.90;;;;;;;19.59;59.48;95961.09;10473670;28;20043;-23
2022/05/22 18:06:40;;;;;;;1.13;1.02;;;;;;;19.45;60.42;95957.91;10471903;28;20486;-22
2022/05/22 18:16:59;;;;;;;3.92;1.10;;;;;;;19.52;61.03;95992.50;10451044;28;20041;-22
2022/05/22 18:22:25;;;;;;;1.30;0.80;;;;;;;19.70;60.16;95988.00;10453144;28;20262;-23
2022/05/22 18:27:25;;;;;;;2.47;0.98;;;;;;;19.80;58.98;95991.19;10457143;28;20040;-23
2022/05/22 18:32:34;;;;;;;1.27;0.77;;;;;;;19.72;58.90;95990.47;10456107;28;20041;-23
2022/05/22 18:37:35;;;;;;;1.67;0.65;;;;;;;19.71;59.13;95988.81;10445599;28;20427;-22
2022/05/22 18:42:41;;;;;;;1.35;0.65;;;;;;;19.68;59.19;95991.41;10445938;28;20040;-23
2022/05/22 18:47:42;;;;;;;;;;;;;;;19.63;59.85;95995.72;10455251;28;20048;-24
2022/05/22 18:52:42;;;;;;;2.03;1.33;;;;;;;19.55;61.09;95997.53;10445144;28;19990;-23
2022/05/22 18:57:44;;;;;;;1.40;0.80;;;;;;;19.45;60.72;95990.91;10477875;28;20036;-23
2022/05/22 19:02:45;;;;;;;2.50;1.02;;;;;;;19.49;61.37;95992.56;10450332;28;20702;-26
2022/05/22 19:07:45;;;;;;;1.70;1.00;;;;;;;19.47;61.69;95996.81;10415209;28;20106;-24
2022/05/22 19:12:47;;;;;;;1.10;1.00;;;;;;;19.50;61.13;95999.31;10421924;28;22140;-24
2022/05/22 19:17:47;;;;;;;2.58;1.30;;;;;;;19.52;61.86;96002.66;10431329;28;20041;-23
2022/05/22 19:22:48;;;;;;;4.95;1.50;;;;;;;19.47;62.54;96009.50;10445870;28;20045;-24
2022/05/22 19:27:52;;;;;;;2.30;1.02;;;;;;;19.42;62.92;96011.28;10464417;28;20092;-22
2022/05/22 19:33:02;;;;;;;1.52;1.20;;;;;;;19.43;62.37;96018.03;10466131;28;20118;-23
2022/05/22 19:38:02;;;;;;;3.28;1.30;;;;;;;19.37;62.66;96023.19;10452256;28;20032;-22
2022/05/22 19:48:22;;;;;;;2.97;1.05;;;;;;;19.32;63.40;96030.03;10469158;28;20043;-23
2022/05/22 19:53:22;;;;;;;3.13;1.07;;;;;;;19.41;62.86;96045.16;10451218;28;20025;-23
2022/05/22 19:58:44;;;;;;;2.47;1.10;;;;;;;19.47;62.85;96045.03;10451312;28;20052;-24
2022/05/22 20:03:47;;;;;;;3.35;1.05;;;;;;;19.37;63.96;96038.44;10459205;28;20535;-22
2022/05/22 20:08:50;;;;;;;2.90;1.27;;;;;;;19.32;64.02;96037.63;10479781;28;20041;-23
2022/05/22 20:13:51;;;;;;;2.03;1.20;;;;;;;19.31;64.03;96023.28;10452573;28;20029;-23
2022/05/22 20:18:53;;;;;;;1.77;1.07;;;;;;;19.30;63.55;96026.69;10459149;28;20486;-23
2022/05/22 20:23:53;;;;;;;1.83;1.25;;;;;;;19.26;63.97;96025.06;10487475;28;20024;-23
2022/05/22 20:28:54;;;;;;;3.80;1.47;;;;;;;19.24;64.02;96017.44;10458776;28;20059;-23
2022/05/22 20:33:54;;;;;;;2.55;1.42;;;;;;;19.24;63.57;96014.09;10493721;28;20054;-22
2022/05/22 20:39:00;;;;;;;2.47;1.33;;;;;;;19.29;63.24;96017.38;10492652;28;20261;-23
2022/05/22 20:44:04;;;;;;;1.33;0.93;;;;;;;19.31;62.66;95991.13;10453575;28;20056;-23
2022/05/22 20:49:04;;;;;;;2.58;1.30;;;;;;;19.31;63.17;95991.13;10470684;28;20037;-22
2022/05/22 20:54:05;;;;;;;1.87;1.33;;;;;;;19.23;63.37;95979.41;10453028;28;20033;-23
2022/05/22 20:59:05;;;;;;;2.20;1.23;;;;;;;19.22;63.61;95978.59;10458101;28;20471;-22
2022/05/22 21:04:06;;;;;;;2.72;1.42;;;;;;;19.19;63.46;95977.78;10493586;28;20089;-23
2022/05/22 21:09:12;;;;;;;2.70;1.17;;;;;;;19.17;63.47;95975.22;10491191;28;20029;-24
2022/05/22 21:14:13;;;;;;;2.78;1.30;;;;;;;19.14;63.74;95969.34;10453425;28;20040;-23
2022/05/22 21:19:13;;;;;;;2.80;1.30;;;;;;;19.14;63.33;95980.34;10453279;28;20487;-22
2022/05/22 21:29:37;;;;;;;1.35;1.13;;;;;;;19.21;63.05;95965.91;10494186;28;20048;-23
2022/05/22 21:34:37;;;;;;;1.83;1.48;;;;;;;19.27;62.70;95955.69;10467512;28;20052;-23
2022/05/22 21:39:38;;;;;;;2.63;2.28;;;;;;;19.20;62.94;95949.00;10452502;28;20037;-24
2022/05/22 21:44:44;;;;;;;1.67;1.10;;;;;;;19.11;63.02;95929.66;10451088;28;20047;-22
2022/05/22 21:49:44;;;;;;;2.28;1.30;;;;;;;19.13;63.35;95927.94;10451461;28;20037;-23
2022/05/22 21:54:45;;;;;;;2.85;1.52;;;;;;;19.10;63.35;95922.06;10452074;28;20479;-23
2022/05/22 21:59:51;;;;;;;3.43;1.60;;;;;;;19.10;63.24;95922.06;10451883;28;20103;-22
2022/05/22 22:04:53;;;;;;;2.28;1.48;;;;;;;19.08;63.20;95931.41;10450985;28;20041;-24
2022/05/22 22:09:53;;;;;;;2.22;1.70;;;;;;;19.10;63.59;95922.06;10460085;28;20486;-22
2022/05/22 22:14:53;;;;;;;3.63;1.70;;;;;;;19.04;63.44;95907.78;10492759;28;20036;-22
2022/05/22 22:19:54;;;;;;;1.70;1.40;;;;;;;19.20;62.48;95908.41;10461196;28;20093;-23
2022/05/22 22:24:54;;;;;;;4.25;1.52;;;;;;;19.22;62.55;95896.53;10449970;28;20044;-24
2022/05/22 22:29:54;;;;;;;2.10;1.63;;;;;;;19.14;62.88;95893.25;10450652;28;20041;-23
2022/05/22 22:34:55;;;;;;;2.27;1.77;;;;;;;19.07;62.90;95889.97;10470824;28;20029;-23
2022/05/22 22:39:55;;;;;;;3.63;1.70;;;;;;;19.12;63.09;95889.91;10481678;28;20507;-24
2022/05/22 22:44:56;;;;;;;3.10;1.70;;;;;;;19.05;63.20;95891.69;10450041;28;20041;-23
2022/05/22 22:50:02;;;;;;;7.22;2.33;;;;;;;19.04;63.10;95889.19;10478420;28;20040;-25
2022/05/22 23:00:22;;;;;;;3.75;1.70;;;;;;;19.02;63.14;95868.06;10457685;28;20088;-23
2022/05/22 23:05:23;;;;;;;4.55;2.20;;;;;;;19.02;63.13;95873.16;10479432;28;20044;-22
2022/05/22 23:10:24;;;;;;;1.90;1.73;;;;;;;19.13;62.68;95871.28;10485169;28;20087;-22
2022/05/22 23:15:24;;;;;;;4.78;1.75;;;;;;;19.12;62.78;95882.28;10458060;28;20107;-24
2022/05/22 23:20:25;;;;;;;2.38;1.92;;;;;;;19.06;62.85;95857.00;10457794;28;20053;-22
2022/05/22 23:25:28;;;;;;;2.33;2.00;;;;;;;19.03;63.19;95852.00;10458137;28;20071;-24
2022/05/22 23:30:29;;;;;;;2.40;2.00;;;;;;;18.98;63.03;95846.13;10457584;28;20286;-23
2022/05/22 23:35:29;;;;;;;5.40;1.93;;;;;;;18.99;63.02;95850.38;10481567;28;20036;-25
2022/05/22 23:40:32;;;;;;;3.67;2.65;;;;;;;19.00;63.14;95859.66;10482959;28;20079;-24
2022/05/22 23:45:33;;;;;;;3.95;1.70;;;;;;;18.97;63.13;95854.63;10456387;28;20442;-23
2022/05/22 23:50:37;;;;;;;2.20;2.00;;;;;;;18.96;63.24;95846.19;10456649;28;20601;-23
2022/05/22 23:55:38;;;;;;;5.00;1.85;;;;;;;18.95;63.13;95836.06;10456767;28;20037;-23
